createdAt,value
2018-02-18T00:00:59.188Z,100326.34
2018-02-18T00:03:26.818Z,100332.45
2018-02-18T00:05:54.389Z,100345.43
2018-02-18T00:08:22.020Z,100336.78
2018-02-18T00:10:49.642Z,100334.40
2018-02-18T00:13:17.284Z,100326.53
2018-02-18T00:15:44.958Z,100319.30
2018-02-18T00:18:12.657Z,100317.55
2018-02-18T00:20:40.241Z,100322.37
2018-02-18T00:23:07.893Z,100302.01
2018-02-18T00:25:35.529Z,100311.95
2018-02-18T00:28:03.126Z,100306.33
2018-02-18T00:30:30.691Z,100295.36
2018-02-18T00:32:58.302Z,100291.87
2018-02-18T00:35:25.870Z,100295.94
2018-02-18T00:37:53.432Z,100287.52
2018-02-18T00:40:21.062Z,100291.85
2018-02-18T00:42:48.621Z,100286.02
2018-02-18T00:45:16.204Z,100283.62
2018-02-18T00:47:43.808Z,100286.09
2018-02-18T00:50:11.402Z,100281.39
2018-02-18T00:52:38.992Z,100275.98
2018-02-18T00:55:06.589Z,100273.12
2018-02-18T00:57:34.159Z,100267.71
2018-02-18T01:00:01.745Z,100261.10
2018-02-18T01:02:29.382Z,100252.55
2018-02-18T01:04:56.944Z,100249.36
2018-02-18T01:07:24.499Z,100245.59
2018-02-18T01:09:52.095Z,100233.09
2018-02-18T01:12:19.656Z,100233.31
2018-02-18T01:14:47.220Z,100236.52
2018-02-18T01:17:14.829Z,100229.36
2018-02-18T01:19:42.387Z,100231.25
2018-02-18T01:22:09.955Z,100226.79
2018-02-18T01:24:37.564Z,100211.19
2018-02-18T01:27:05.182Z,100207.86
2018-02-18T01:29:32.748Z,100208.34
2018-02-18T01:32:00.339Z,100210.08
2018-02-18T01:34:27.904Z,100213.56
2018-02-18T01:36:55.481Z,100211.69
2018-02-18T01:39:23.109Z,100207.91
2018-02-18T01:41:50.670Z,100209.87
2018-02-18T01:44:18.237Z,100210.28
2018-02-18T01:46:45.854Z,100205.16
2018-02-18T01:49:13.421Z,100200.66
2018-02-18T01:51:40.994Z,100201.58
2018-02-18T01:54:08.602Z,100195.24
2018-02-18T01:56:36.171Z,100193.02
2018-02-18T01:59:03.755Z,100201.80
2018-02-18T02:01:31.372Z,100189.94
2018-02-18T02:03:58.941Z,100181.36
2018-02-18T02:06:26.672Z,100180.62
2018-02-18T02:08:54.294Z,100174.38
2018-02-18T02:11:21.886Z,100174.66
2018-02-18T02:13:49.452Z,100171.84
2018-02-18T02:16:17.053Z,100168.52
2018-02-18T02:18:44.636Z,100168.94
2018-02-18T02:21:12.211Z,100165.41
2018-02-18T02:23:39.821Z,100161.16
2018-02-18T02:26:07.406Z,100159.56
2018-02-18T02:28:34.982Z,100159.23
2018-02-18T02:31:02.582Z,100158.98
2018-02-18T02:33:30.156Z,100158.48
2018-02-18T02:35:57.747Z,100152.64
2018-02-18T02:38:25.415Z,100150.80
2018-02-18T02:40:52.979Z,100155.13
2018-02-18T02:43:20.538Z,100152.02
2018-02-18T02:45:48.157Z,100145.91
2018-02-18T02:48:15.716Z,100146.27
2018-02-18T02:50:43.292Z,100149.07
2018-02-18T02:53:10.908Z,100147.31
2018-02-18T02:55:38.482Z,100157.03
2018-02-18T02:58:06.065Z,100158.39
2018-02-18T03:00:33.682Z,100165.01
2018-02-18T03:03:01.251Z,100161.41
2018-02-18T03:05:28.831Z,100161.61
2018-02-18T03:07:56.485Z,100163.44
2018-02-18T03:10:24.066Z,100166.69
2018-02-18T03:12:51.619Z,100161.47
2018-02-18T03:15:19.234Z,100161.44
2018-02-18T03:17:46.805Z,100159.92
2018-02-18T03:20:14.372Z,100163.64
2018-02-18T03:22:41.967Z,100160.69
2018-02-18T03:25:09.519Z,100164.77
2018-02-18T03:27:37.091Z,100173.33
2018-02-18T03:30:04.692Z,100172.61
2018-02-18T03:32:32.280Z,100178.85
2018-02-18T03:34:59.870Z,100179.61
2018-02-18T03:37:27.472Z,100187.87
2018-02-18T03:39:55.061Z,100179.80
2018-02-18T03:42:22.633Z,100187.45
2018-02-18T03:44:50.255Z,100189.10
2018-02-18T03:47:17.847Z,100193.67
2018-02-18T03:49:45.424Z,100193.09
2018-02-18T03:52:13.045Z,100199.67
2018-02-18T03:54:40.618Z,100199.45
2018-02-18T03:57:08.196Z,100201.77
2018-02-18T03:59:35.788Z,100205.67
2018-02-18T04:02:03.352Z,100205.11
2018-02-18T04:04:30.917Z,100197.69
2018-02-18T04:06:58.558Z,100195.98
2018-02-18T04:09:26.190Z,100187.59
2018-02-18T04:11:53.774Z,100195.78
2018-02-18T04:14:21.386Z,100198.84
2018-02-18T04:16:48.963Z,100211.19
2018-02-18T04:19:16.523Z,100196.27
2018-02-18T04:21:44.150Z,100194.84
2018-02-18T04:24:11.740Z,100199.13
2018-02-18T04:26:39.312Z,100196.84
2018-02-18T04:29:06.916Z,100193.45
2018-02-18T04:31:34.503Z,100200.71
2018-02-18T04:34:02.074Z,100192.31
2018-02-18T04:36:29.690Z,100191.02
2018-02-18T04:38:57.257Z,100184.62
2018-02-18T04:41:24.826Z,100180.67
2018-02-18T04:43:52.434Z,100174.84
2018-02-18T04:46:19.995Z,100175.80
2018-02-18T04:48:47.578Z,100174.48
2018-02-18T04:51:15.172Z,100172.94
2018-02-18T04:53:42.754Z,100159.61
2018-02-18T04:56:10.326Z,100182.62
2018-02-18T04:58:37.938Z,100188.34
2018-02-18T05:01:05.512Z,100185.40
2018-02-18T05:03:33.065Z,100182.08
2018-02-18T05:06:00.663Z,100176.49
2018-02-18T05:08:28.231Z,100184.88
2018-02-18T05:10:55.792Z,100178.49
2018-02-18T05:13:23.393Z,100172.45
2018-02-18T05:15:50.943Z,100189.84
2018-02-18T05:18:18.510Z,100190.52
2018-02-18T05:20:46.117Z,100199.02
2018-02-18T05:23:13.682Z,100203.80
2018-02-18T05:25:41.252Z,100198.30
2018-02-18T05:28:08.836Z,100200.59
2018-02-18T05:30:36.409Z,100198.70
2018-02-18T05:33:04.007Z,100202.25
2018-02-18T05:35:31.622Z,100196.69
2018-02-18T05:37:59.187Z,100191.88
2018-02-18T05:40:26.776Z,100197.91
2018-02-18T05:42:54.391Z,100202.34
2018-02-18T05:45:22.875Z,100194.25
2018-02-18T05:47:50.505Z,100189.95
2018-02-18T05:52:51.804Z,100196.72
2018-02-18T05:55:19.406Z,100191.80
2018-02-18T05:57:46.966Z,100190.44
2018-02-18T06:00:14.527Z,100191.36
2018-02-18T06:02:42.136Z,100185.50
2018-02-18T06:05:09.703Z,100187.99
2018-02-18T06:07:37.290Z,100182.84
2018-02-18T06:10:04.944Z,100181.16
2018-02-18T06:12:32.513Z,100188.28
2018-02-18T06:15:00.098Z,100186.95
2018-02-18T06:17:27.712Z,100188.29
2018-02-18T06:19:55.296Z,100190.84
2018-02-18T06:22:22.874Z,100196.64
2018-02-18T06:24:50.486Z,100198.56
2018-02-18T06:27:18.056Z,100198.38
2018-02-18T06:29:45.597Z,100199.92
2018-02-18T06:32:13.209Z,100192.75
2018-02-18T06:34:40.789Z,100199.77
2018-02-18T06:37:08.351Z,100203.82
2018-02-18T06:39:35.948Z,100209.99
2018-02-18T06:42:03.515Z,100210.97
2018-02-18T06:44:31.093Z,100209.57
2018-02-18T06:46:58.696Z,100210.31
2018-02-18T06:49:26.251Z,100206.83
2018-02-18T06:54:20.714Z,100213.89
2018-02-18T06:56:48.319Z,100218.48
2018-02-18T06:59:15.894Z,100213.74
2018-02-18T07:01:43.500Z,100221.47
2018-02-18T07:04:11.080Z,100201.73
2018-02-18T07:06:38.679Z,100218.42
2018-02-18T07:09:06.290Z,100214.89
2018-02-18T07:11:33.855Z,100208.79
2018-02-18T07:14:01.428Z,100212.30
2018-02-18T07:16:29.055Z,100210.02
2018-02-18T07:18:56.634Z,100214.92
2018-02-18T07:21:24.204Z,100208.91
2018-02-18T07:23:51.803Z,100202.38
2018-02-18T07:26:19.385Z,100200.95
2018-02-18T07:28:46.963Z,100200.97
2018-02-18T07:31:14.569Z,100199.29
2018-02-18T07:33:42.134Z,100199.70
2018-02-18T07:36:09.780Z,100197.08
2018-02-18T07:38:37.388Z,100194.62
2018-02-18T07:41:04.999Z,100191.52
2018-02-18T07:43:32.673Z,100187.95
2018-02-18T07:46:00.290Z,100202.00
2018-02-18T07:48:27.860Z,100194.06
2018-02-18T07:50:55.444Z,100192.09
2018-02-18T07:53:23.106Z,100187.51
2018-02-18T07:55:50.772Z,100189.78
2018-02-18T07:58:18.328Z,100191.83
2018-02-18T08:00:45.953Z,100189.89
2018-02-18T08:03:13.540Z,100192.41
2018-02-18T08:05:41.102Z,100187.44
2018-02-18T08:08:08.712Z,100180.14
2018-02-18T08:10:36.264Z,100175.50
2018-02-18T08:13:03.938Z,100176.86
2018-02-18T08:15:31.544Z,100176.26
2018-02-18T08:17:59.129Z,100174.61
2018-02-18T08:20:26.702Z,100165.38
2018-02-18T08:22:54.326Z,100165.56
2018-02-18T08:25:21.898Z,100167.64
2018-02-18T08:27:49.468Z,100162.53
2018-02-18T08:30:17.097Z,100161.78
2018-02-18T08:32:44.738Z,100156.66
2018-02-18T08:35:12.309Z,100158.13
2018-02-18T08:37:39.915Z,100165.26
2018-02-18T08:40:07.552Z,100161.72
2018-02-18T08:42:35.149Z,100163.16
2018-02-18T08:45:02.755Z,100172.22
2018-02-18T08:47:30.316Z,100166.97
2018-02-18T08:49:57.891Z,100169.22
2018-02-18T08:52:25.505Z,100168.99
2018-02-18T08:54:53.089Z,100164.00
2018-02-18T08:57:20.659Z,100166.37
2018-02-18T08:59:48.271Z,100169.77
2018-02-18T09:02:15.849Z,100169.91
2018-02-18T09:04:43.426Z,100172.70
2018-02-18T09:07:11.055Z,100164.60
2018-02-18T09:09:38.649Z,100169.38
2018-02-18T09:12:06.243Z,100169.61
2018-02-18T09:14:33.892Z,100171.05
2018-02-18T09:17:01.535Z,100167.61
2018-02-18T09:19:29.134Z,100166.62
2018-02-18T09:21:56.743Z,100167.27
2018-02-18T09:24:24.335Z,100165.92
2018-02-18T09:26:51.924Z,100167.16
2018-02-18T09:29:19.548Z,100165.00
2018-02-18T09:31:47.126Z,100166.02
2018-02-18T09:34:14.785Z,100161.07
2018-02-18T09:36:42.394Z,100166.02
2018-02-18T09:39:09.986Z,100158.91
2018-02-18T09:41:37.551Z,100161.23
2018-02-18T09:44:05.172Z,100151.27
2018-02-18T09:46:32.763Z,100151.28
2018-02-18T09:49:00.354Z,100145.34
2018-02-18T09:51:27.970Z,100152.59
2018-02-18T09:53:55.542Z,100151.42
2018-02-18T09:56:23.119Z,100151.22
2018-02-18T09:58:53.603Z,100153.11
2018-02-18T10:01:21.401Z,100148.31
2018-02-18T10:03:48.984Z,100154.00
2018-02-18T10:06:16.596Z,100149.23
2018-02-18T10:08:44.173Z,100143.89
2018-02-18T10:11:11.769Z,100139.69
2018-02-18T10:13:39.386Z,100144.95
2018-02-18T10:16:06.973Z,100144.59
2018-02-18T10:18:34.558Z,100146.67
2018-02-18T10:21:02.170Z,100135.11
2018-02-18T10:23:29.761Z,100139.31
2018-02-18T10:25:57.344Z,100135.75
2018-02-18T10:28:24.951Z,100131.41
2018-02-18T10:30:52.525Z,100132.81
2018-02-18T10:33:20.106Z,100133.94
2018-02-18T10:35:47.707Z,100124.05
2018-02-18T10:38:15.284Z,100128.09
2018-02-18T10:40:42.869Z,100115.64
2018-02-18T10:43:10.515Z,100114.98
2018-02-18T10:45:38.102Z,100118.91
2018-02-18T10:48:05.697Z,100119.79
2018-02-18T10:50:33.299Z,100113.28
2018-02-18T10:53:01.627Z,100114.35
2018-02-18T10:55:29.256Z,100122.85
2018-02-18T10:57:56.884Z,100117.58
2018-02-18T11:00:24.478Z,100116.27
2018-02-18T11:02:52.057Z,100118.66
2018-02-18T11:05:19.669Z,100121.89
2018-02-18T11:07:47.245Z,100116.38
2018-02-18T11:10:14.833Z,100120.78
2018-02-18T11:12:42.432Z,100125.72
2018-02-18T11:15:10.012Z,100115.52
2018-02-18T11:17:37.584Z,100114.20
2018-02-18T11:20:05.250Z,100115.54
2018-02-18T11:22:32.808Z,100108.97
2018-02-18T11:25:00.416Z,100109.94
2018-02-18T11:27:28.021Z,100110.95
2018-02-18T11:29:55.618Z,100108.16
2018-02-18T11:32:23.204Z,100110.77
2018-02-18T11:34:50.825Z,100103.44
2018-02-18T11:37:18.402Z,100095.95
2018-02-18T11:39:45.991Z,100099.06
2018-02-18T11:42:13.657Z,100097.48
2018-02-18T11:44:41.217Z,100092.58
2018-02-18T11:47:08.916Z,100084.95
2018-02-18T11:49:36.530Z,100094.77
2018-02-18T11:52:04.093Z,100097.52
2018-02-18T11:54:31.672Z,100092.44
2018-02-18T11:56:59.290Z,100098.34
2018-02-18T11:59:26.870Z,100100.02
2018-02-18T12:01:54.463Z,100100.56
2018-02-18T12:04:22.080Z,100106.45
2018-02-18T12:06:49.657Z,100095.27
2018-02-18T12:09:17.254Z,100102.66
2018-02-18T12:11:44.878Z,100100.41
2018-02-18T12:14:12.450Z,100096.69
2018-02-18T12:16:40.042Z,100102.11
2018-02-18T12:19:07.766Z,100101.86
2018-02-18T12:21:35.442Z,100103.16
2018-02-18T12:24:03.049Z,100100.31
2018-02-18T12:26:30.651Z,100104.04
2018-02-18T12:28:58.230Z,100099.27
2018-02-18T12:31:25.790Z,100096.71
2018-02-18T12:33:53.415Z,100101.37
2018-02-18T12:36:21.006Z,100101.45
2018-02-18T12:38:48.583Z,100098.74
2018-02-18T12:41:16.189Z,100106.27
2018-02-18T12:43:43.750Z,100096.80
2018-02-18T12:46:11.321Z,100096.67
2018-02-18T12:48:38.924Z,100098.16
2018-02-18T12:51:06.499Z,100094.80
2018-02-18T12:53:34.073Z,100099.48
2018-02-18T12:56:01.680Z,100092.71
2018-02-18T12:58:29.243Z,100093.31
2018-02-18T13:00:56.795Z,100096.62
2018-02-18T13:03:24.457Z,100104.75
2018-02-18T13:05:52.026Z,100098.30
2018-02-18T13:08:19.600Z,100096.22
2018-02-18T13:10:47.224Z,100095.95
2018-02-18T13:13:14.815Z,100098.77
2018-02-18T13:15:42.397Z,100101.13
2018-02-18T13:18:10.167Z,100096.11
2018-02-18T13:20:37.764Z,100098.18
2018-02-18T13:23:05.334Z,100097.02
2018-02-18T13:25:33.022Z,100100.98
2018-02-18T13:28:00.582Z,100097.54
2018-02-18T13:30:28.141Z,100103.61
2018-02-18T13:32:55.746Z,100101.14
2018-02-18T13:35:23.318Z,100111.13
2018-02-18T13:37:50.960Z,100113.87
2018-02-18T13:40:18.567Z,100111.66
2018-02-18T13:42:46.119Z,100121.72
2018-02-18T13:45:13.678Z,100121.67
2018-02-18T13:47:41.291Z,100124.83
2018-02-18T13:50:08.845Z,100124.00
2018-02-18T13:52:36.423Z,100130.44
2018-02-18T13:55:04.072Z,100123.30
2018-02-18T13:57:31.663Z,100130.19
2018-02-18T13:59:59.270Z,100131.83
2018-02-18T14:02:26.867Z,100128.72
2018-02-18T14:04:54.443Z,100127.56
2018-02-18T14:07:22.029Z,100130.89
2018-02-18T14:09:49.616Z,100132.90
2018-02-18T14:12:17.202Z,100141.45
2018-02-18T14:14:44.781Z,100146.30
2018-02-18T14:17:12.390Z,100144.89
2018-02-18T14:19:39.965Z,100146.45
2018-02-18T14:22:07.542Z,100153.58
2018-02-18T14:24:35.218Z,100153.19
2018-02-18T14:27:02.777Z,100155.09
2018-02-18T14:29:30.357Z,100164.11
2018-02-18T14:31:58.004Z,100154.46
2018-02-18T14:34:25.588Z,100152.32
2018-02-18T14:36:53.178Z,100154.46
2018-02-18T14:39:20.793Z,100149.22
2018-02-18T14:42:00.102Z,100151.55
2018-02-18T14:44:39.646Z,100159.81
2018-02-18T14:47:19.031Z,100156.81
2018-02-18T14:49:58.497Z,100158.58
2018-02-18T14:52:37.697Z,100159.91
2018-02-18T14:58:07.854Z,100167.88
2018-02-18T15:00:35.465Z,100167.45
2018-02-18T15:03:03.042Z,100176.42
2018-02-18T15:05:30.619Z,100172.72
2018-02-18T15:07:58.303Z,100183.73
2018-02-18T15:10:25.885Z,100180.75
2018-02-18T15:12:53.558Z,100185.59
2018-02-18T15:15:21.184Z,100184.66
2018-02-18T15:17:48.755Z,100191.25
2018-02-18T15:20:16.373Z,100197.91
2018-02-18T15:22:44.011Z,100199.70
2018-02-18T15:25:11.576Z,100196.99
2018-02-18T15:27:39.138Z,100202.99
2018-02-18T15:30:06.727Z,100210.81
2018-02-18T15:32:34.288Z,100210.90
2018-02-18T15:35:01.852Z,100212.67
2018-02-18T15:37:29.449Z,100212.64
2018-02-18T15:39:56.999Z,100220.47
2018-02-18T15:42:24.559Z,100222.70
2018-02-18T15:44:52.178Z,100233.23
2018-02-18T15:47:19.740Z,100239.27
2018-02-18T15:49:47.310Z,100234.98
2018-02-18T15:52:14.914Z,100242.10
2018-02-18T15:54:42.484Z,100246.02
2018-02-18T15:57:10.059Z,100245.16
2018-02-18T15:59:37.664Z,100253.23
2018-02-18T16:02:05.372Z,100256.52
2018-02-18T16:04:32.938Z,100251.27
2018-02-18T16:07:00.542Z,100251.53
2018-02-18T16:09:28.125Z,100261.66
2018-02-18T16:11:55.720Z,100265.81
2018-02-18T16:14:23.339Z,100270.16
2018-02-18T16:16:50.903Z,100269.33
2018-02-18T16:19:18.479Z,100269.14
2018-02-18T16:21:46.102Z,100266.36
2018-02-18T16:24:13.664Z,100270.50
2018-02-18T16:26:41.246Z,100280.00
2018-02-18T16:29:08.861Z,100283.61
2018-02-18T16:31:36.426Z,100286.77
2018-02-18T16:34:03.988Z,100288.78
2018-02-18T16:36:31.592Z,100295.50
2018-02-18T16:38:59.168Z,100299.52
2018-02-18T16:41:26.737Z,100300.59
2018-02-18T16:43:54.341Z,100297.82
2018-02-18T16:46:21.906Z,100308.50
2018-02-18T16:48:49.463Z,100308.05
2018-02-18T16:51:17.075Z,100307.83
2018-02-18T16:53:44.677Z,100310.26
2018-02-18T16:56:12.341Z,100312.05
2018-02-18T16:58:39.977Z,100308.33
2018-02-18T17:01:07.547Z,100312.29
2018-02-18T17:03:35.147Z,100309.41
2018-02-18T17:06:02.778Z,100314.14
2018-02-18T17:08:30.355Z,100314.74
2018-02-18T17:10:57.918Z,100313.28
2018-02-18T17:13:25.512Z,100309.52
2018-02-18T17:15:53.079Z,100311.02
2018-02-18T17:18:20.718Z,100315.97
2018-02-18T17:20:48.316Z,100314.92
2018-02-18T17:23:15.890Z,100319.27
2018-02-18T17:25:43.460Z,100315.92
2018-02-18T17:28:11.071Z,100317.20
2018-02-18T17:30:38.644Z,100318.22
2018-02-18T17:33:06.211Z,100313.61
2018-02-18T17:35:33.841Z,100309.61
2018-02-18T17:38:01.400Z,100314.50
2018-02-18T17:40:28.991Z,100316.03
2018-02-18T17:42:56.614Z,100317.01
2018-02-18T17:45:24.213Z,100322.54
2018-02-18T17:47:51.793Z,100320.34
2018-02-18T17:50:19.407Z,100325.72
2018-02-18T17:52:47.002Z,100319.17
2018-02-18T17:55:14.564Z,100313.77
2018-02-18T17:57:42.221Z,100317.58
2018-02-18T18:00:09.902Z,100315.52
2018-02-18T18:02:37.531Z,100321.02
2018-02-18T18:05:05.271Z,100322.22
2018-02-18T18:07:32.857Z,100316.83
2018-02-18T18:10:00.428Z,100317.66
2018-02-18T18:12:28.031Z,100317.08
2018-02-18T18:14:55.618Z,100324.26
2018-02-18T18:17:23.202Z,100322.09
2018-02-18T18:19:50.797Z,100318.45
2018-02-18T18:22:18.366Z,100315.75
2018-02-18T18:24:45.953Z,100315.91
2018-02-18T18:27:13.566Z,100313.74
2018-02-18T18:29:41.127Z,100312.91
2018-02-18T18:32:08.724Z,100314.53
2018-02-18T18:34:36.994Z,100314.06
2018-02-18T18:37:05.820Z,100315.36
2018-02-18T18:39:34.626Z,100320.31
2018-02-18T18:42:02.299Z,100324.09
2018-02-18T18:44:29.871Z,100328.47
2018-02-18T18:46:59.858Z,100334.15
2018-02-18T18:49:30.139Z,100331.65
2018-02-18T18:52:00.435Z,100333.84
2018-02-18T18:54:30.818Z,100335.95
2018-02-18T18:57:01.174Z,100336.30
2018-02-18T18:59:28.902Z,100332.84
2018-02-18T19:01:56.508Z,100331.35
2018-02-18T19:04:24.066Z,100335.88
2018-02-18T19:06:51.624Z,100337.82
2018-02-18T19:09:19.210Z,100321.11
2018-02-18T19:11:46.775Z,100338.36
2018-02-18T19:14:14.382Z,100332.18
2018-02-18T19:16:41.974Z,100335.34
2018-02-18T19:19:09.532Z,100335.23
2018-02-18T19:21:37.111Z,100340.70
2018-02-18T19:24:04.726Z,100343.58
2018-02-18T19:26:32.296Z,100339.78
2018-02-18T19:28:59.865Z,100337.02
2018-02-18T19:31:27.465Z,100332.50
2018-02-18T19:33:55.250Z,100336.91
2018-02-18T19:36:23.166Z,100333.38
2018-02-18T19:38:50.781Z,100337.08
2018-02-18T19:41:18.339Z,100330.62
2018-02-18T19:43:45.915Z,100333.25
2018-02-18T19:46:13.493Z,100324.94
2018-02-18T19:48:41.040Z,100330.08
2018-02-18T19:51:08.612Z,100327.83
2018-02-18T19:53:36.229Z,100332.42
2018-02-18T19:56:03.793Z,100334.28
2018-02-18T19:58:31.358Z,100331.19
2018-02-18T20:00:58.945Z,100339.19
2018-02-18T20:03:26.495Z,100345.37
2018-02-18T20:05:54.064Z,100338.37
2018-02-18T20:08:21.694Z,100328.58
2018-02-18T20:10:49.278Z,100336.55
2018-02-18T20:13:16.863Z,100335.69
2018-02-18T20:15:44.502Z,100329.47
2018-02-18T20:18:12.074Z,100335.09
2018-02-18T20:20:39.624Z,100334.98
2018-02-18T20:23:07.235Z,100342.93
2018-02-18T20:25:34.818Z,100337.33
2018-02-18T20:28:02.385Z,100342.80
2018-02-18T20:30:29.982Z,100339.68
2018-02-18T20:32:57.562Z,100334.80
2018-02-18T20:35:25.160Z,100343.76
2018-02-18T20:37:52.751Z,100339.26
2018-02-18T20:40:20.310Z,100339.93
2018-02-18T20:42:47.888Z,100344.19
2018-02-18T20:45:15.497Z,100347.16
2018-02-18T20:47:43.119Z,100342.70
2018-02-18T20:50:10.680Z,100346.13
2018-02-18T20:52:38.272Z,100348.80
2018-02-18T20:55:05.842Z,100348.83
2018-02-18T20:57:33.400Z,100348.34
2018-02-18T21:00:01.024Z,100348.87
2018-02-18T21:02:28.616Z,100349.02
2018-02-18T21:04:56.188Z,100338.17
2018-02-18T21:07:23.820Z,100343.11
2018-02-18T21:09:51.404Z,100352.75
2018-02-18T21:12:19.041Z,100349.98
2018-02-18T21:14:46.660Z,100356.55
2018-02-18T21:17:14.238Z,100356.73
2018-02-18T21:19:41.812Z,100357.08
2018-02-18T21:22:09.419Z,100355.56
2018-02-18T21:24:36.988Z,100355.90
2018-02-18T21:27:04.571Z,100356.30
2018-02-18T21:29:32.222Z,100358.19
2018-02-18T21:31:59.802Z,100354.97
2018-02-18T21:34:27.369Z,100355.98
2018-02-18T21:36:55.031Z,100361.08
2018-02-18T21:39:22.610Z,100359.34
2018-02-18T21:41:50.182Z,100361.36
2018-02-18T21:44:17.885Z,100355.48
2018-02-18T21:46:45.464Z,100355.48
2018-02-18T21:49:13.023Z,100354.84
2018-02-18T21:51:40.631Z,100350.44
2018-02-18T21:54:08.211Z,100354.80
2018-02-18T21:56:35.776Z,100350.98
2018-02-18T21:59:03.390Z,100350.90
2018-02-18T22:01:30.963Z,100344.66
2018-02-18T22:03:58.565Z,100354.25
2018-02-18T22:06:26.171Z,100341.09
2018-02-18T22:08:53.736Z,100342.02
2018-02-18T22:11:21.303Z,100350.36
2018-02-18T22:13:48.997Z,100345.48
2018-02-18T22:16:16.656Z,100345.21
2018-02-18T22:18:44.238Z,100336.73
2018-02-18T22:21:11.840Z,100340.12
2018-02-18T22:23:39.462Z,100339.08
2018-02-18T22:26:07.101Z,100342.73
2018-02-18T22:28:34.730Z,100348.52
2018-02-18T22:31:02.336Z,100339.34
2018-02-18T22:33:29.911Z,100342.47
2018-02-18T22:35:57.518Z,100347.00
2018-02-18T22:38:25.134Z,100346.64
2018-02-18T22:40:52.890Z,100345.64
2018-02-18T22:43:20.754Z,100341.32
2018-02-18T22:45:48.342Z,100342.47
2018-02-18T22:48:15.920Z,100343.11
2018-02-18T22:50:43.531Z,100340.17
2018-02-18T22:53:11.104Z,100340.53
2018-02-18T22:55:38.705Z,100337.28
2018-02-18T22:58:06.325Z,100330.95
2018-02-18T23:00:34.393Z,100321.45
2018-02-18T23:03:01.955Z,100304.12
2018-02-18T23:05:35.452Z,100328.57
2018-02-18T23:08:03.047Z,100325.91
2018-02-18T23:10:30.666Z,100327.09
2018-02-18T23:12:58.276Z,100327.83
2018-02-18T23:15:25.840Z,100327.09
2018-02-18T23:17:53.432Z,100323.84
2018-02-18T23:20:21.044Z,100322.60
2018-02-18T23:22:48.626Z,100318.94
2018-02-18T23:25:16.223Z,100324.57
2018-02-18T23:27:44.633Z,100321.92
2018-02-18T23:30:12.221Z,100319.77
2018-02-18T23:32:39.782Z,100321.36
2018-02-18T23:35:07.392Z,100320.67
2018-02-18T23:37:34.960Z,100323.16
2018-02-18T23:40:02.544Z,100321.68
2018-02-18T23:42:30.166Z,100328.42
2018-02-18T23:44:57.735Z,100324.48
2018-02-18T23:47:25.295Z,100327.15
2018-02-18T23:49:52.909Z,100328.61
2018-02-18T23:52:20.476Z,100328.02
2018-02-18T23:54:48.039Z,100335.13
2018-02-18T23:57:15.657Z,100327.23
2018-02-18T23:59:43.237Z,100327.88
